Anton, Texas
Current Conditions -  °F | °C
As of 11:53 PM on Thursday 18 Dec 2014 (Local Time) from KLBB Reporting Station
Overcast Overcast  
Wind Chill: 35°   Ceiling: 600
Heat Index: 39°   Visibility: 8mi
Dew Point: 36°   Wind: 6mph
Humidity: 89%   Direction: 100°E
Pressure: 30.13"   Gusts: NA
Location:  33.81°N, 102.16°W
Report Text: KLBB 190553Z 10005KT 8SM OVC006 04/02 A3013 RMK AO2 SLP196 BR ALQDS T00390022 10083 20033 401390000 50006
Loading
Personal Weather Stations






























Interactive Weather Map New forecast layout! Learn more

10-Day Weather Forecast

Advertisements
Track Severe Weather on mobile